Time;durP1;ratioP1;P1;durP2;ratioP2;P2;SDS_P1;SDS_P2;PMS_P1;PMS_P2;Temp;Humidity;BMP_temperature;BMP_pressure;BME280_temperature;BME280_humidity;BME280_pressure;Samples;Min_cycle;Max_cycle;Signal;HPM_P1;HPM_P2
2021/04/24 00:01:18;;;;;;;8.25;3.00;;;;;;;3.26;52.67;101265.06;5062483;28;20027;-62
2021/04/24 00:03:44;;;;;;;8.18;2.90;;;;;;;3.19;53.17;101267.41;5062200;28;20028;-65
2021/04/24 00:06:09;;;;;;;6.05;2.58;;;;;;;3.22;53.57;101282.94;5062579;28;20079;-65
2021/04/24 00:08:35;;;;;;;5.03;2.67;;;;;;;3.17;53.36;101283.56;5065383;28;20055;-65
2021/04/24 00:11:02;;;;;;;7.20;2.28;;;;;;;3.12;53.39;101285.97;5067160;28;20384;-65
2021/04/24 00:13:27;;;;;;;3.80;2.03;;;;;;;3.02;53.51;101269.34;5066709;28;20036;-65
2021/04/24 00:15:53;;;;;;;7.32;2.67;;;;;;;3.09;53.37;101285.84;5065492;28;20025;-65
2021/04/24 00:18:18;;;;;;;5.18;1.75;;;;;;;3.05;53.28;101289.13;5066628;28;20450;-65
2021/04/24 00:20:44;;;;;;;5.45;2.30;;;;;;;3.04;53.46;101287.34;5066625;28;20020;-65
2021/04/24 00:23:10;;;;;;;9.07;2.83;;;;;;;2.99;53.49;101292.31;5066454;28;20025;-65
2021/04/24 00:25:35;;;;;;;4.93;2.35;;;;;;;2.94;53.72;101292.16;5066992;28;20096;-65
2021/04/24 00:28:01;;;;;;;5.10;1.83;;;;;;;2.88;53.83;101291.94;5066709;28;20021;-65
2021/04/24 00:30:27;;;;;;;6.75;1.95;;;;;;;2.90;53.55;101297.13;5066473;28;20028;-62
2021/04/24 00:32:53;;;;;;;4.30;1.90;;;;;;;2.84;53.56;101292.63;5066204;28;20029;-62
2021/04/24 00:35:20;;;;;;;4.40;1.98;;;;;;;2.84;53.48;101303.75;5066248;28;20029;-63
2021/04/24 00:37:48;;;;;;;2.78;1.73;;;;;;;2.84;53.17;101302.91;5066023;28;20029;-63
2021/04/24 00:40:14;;;;;;;5.82;1.80;;;;;;;2.81;53.21;101310.47;5066132;28;20080;-63
2021/04/24 00:42:39;;;;;;;4.75;1.90;;;;;;;2.79;52.97;101307.84;5066027;28;20029;-63
2021/04/24 00:45:08;;;;;;;3.13;1.40;;;;;;;2.77;52.84;101303.47;5066255;28;20021;-61
2021/04/24 00:47:33;;;;;;;8.20;1.92;;;;;;;2.74;52.84;101319.63;5065971;28;20047;-63
2021/04/24 00:49:58;;;;;;;3.30;1.80;;;;;;;2.73;52.68;101315.31;5065861;28;20049;-62
2021/04/24 00:52:24;;;;;;;6.90;1.80;;;;;;;2.68;52.52;101314.25;5065835;28;20054;-62
2021/04/24 00:54:49;;;;;;;5.97;1.45;;;;;;;2.64;52.37;101313.25;5066080;28;20017;-61
2021/04/24 00:57:15;;;;;;;3.90;1.65;;;;;;;2.63;52.34;101316.66;5065991;28;20033;-61
2021/04/24 00:59:41;;;;;;;4.05;1.73;;;;;;;2.58;52.28;101316.47;5065996;28;20020;-61
2021/04/24 01:02:08;;;;;;;5.25;1.65;;;;;;;2.55;51.97;101318.91;5065618;28;20119;-61
2021/04/24 01:04:34;;;;;;;3.55;1.48;;;;;;;2.51;51.88;101319.59;5065682;28;20021;-62
2021/04/24 01:07:01;;;;;;;3.97;1.25;;;;;;;2.51;51.97;101323.84;5065799;28;20029;-65
2021/04/24 01:09:26;;;;;;;6.28;1.25;;;;;;;2.47;51.76;101331.44;5065584;28;20025;-61
2021/04/24 01:11:52;;;;;;;2.67;1.30;;;;;;;2.44;51.54;101331.31;5065590;28;20082;-61
2021/04/24 01:14:18;;;;;;;1.40;0.98;;;;;;;2.41;51.62;101331.16;5065522;28;20052;-62
2021/04/24 01:16:44;;;;;;;1.73;1.08;;;;;;;2.41;51.48;101336.28;5065473;28;20490;-62
2021/04/24 01:19:11;;;;;;;1.80;1.10;;;;;;;2.37;51.39;101339.53;5064328;28;20432;-61
2021/04/24 01:21:40;;;;;;;2.67;1.05;;;;;;;2.31;51.30;101339.28;5065748;28;20112;-65
2021/04/24 01:24:06;;;;;;;1.73;1.00;;;;;;;2.26;51.04;101335.66;5065319;28;20119;-65
2021/04/24 01:26:33;;;;;;;2.55;0.95;;;;;;;2.23;50.78;101336.44;5066137;28;20029;-65
2021/04/24 01:28:58;;;;;;;3.05;1.20;;;;;;;2.19;50.88;101347.38;5065354;28;20082;-64
2021/04/24 01:31:24;;;;;;;2.10;1.20;;;;;;;2.17;50.93;101341.28;5065441;28;20048;-65
2021/04/24 01:33:49;;;;;;;1.55;0.90;;;;;;;2.17;50.61;101346.41;5065113;28;20088;-65
2021/04/24 01:36:14;;;;;;;1.67;1.08;;;;;;;2.13;50.27;101337.72;5065265;28;20166;-64
2021/04/24 01:38:40;;;;;;;3.45;0.73;;;;;;;2.16;49.85;101345.53;5064812;28;20228;-61
2021/04/24 01:41:05;;;;;;;1.42;0.82;;;;;;;2.13;49.64;101358.22;5063605;28;20032;-61
2021/04/24 01:43:32;;;;;;;2.30;0.85;;;;;;;2.12;49.54;101341.09;5065287;28;20056;-65
2021/04/24 01:45:58;;;;;;;1.65;0.93;;;;;;;2.09;49.27;101348.66;5065425;28;20044;-64
2021/04/24 01:48:23;;;;;;;0.85;0.60;;;;;;;2.05;49.10;101342.53;5065344;28;20087;-64
2021/04/24 01:50:49;;;;;;;3.88;0.90;;;;;;;2.06;49.10;101345.97;5064881;28;20104;-64
2021/04/24 01:53:20;;;;;;;3.35;1.10;;;;;;;2.04;48.95;101347.59;5064746;28;20097;-61
2021/04/24 01:55:46;;;;;;;2.47;1.05;;;;;;;2.01;48.96;101344.91;5065274;28;20033;-65
2021/04/24 01:58:16;;;;;;;2.05;1.00;;;;;;;1.98;48.89;101353.34;5065194;28;20040;-66
2021/04/24 02:00:54;;;;;;;1.30;0.80;;;;;;;1.94;48.74;101360.00;5064861;28;20025;-62
2021/04/24 02:03:19;;;;;;;1.30;0.75;;;;;;;1.93;48.67;101353.13;5064780;28;20028;-62
2021/04/24 02:05:47;;;;;;;1.38;0.70;;;;;;;1.93;48.29;101355.69;5064855;28;20016;-65
2021/04/24 02:08:22;;;;;;;1.35;0.90;;;;;;;1.90;48.15;101358.13;5064309;28;20298;-65
2021/04/24 02:10:51;;;;;;;1.05;0.73;;;;;;;1.86;48.40;101356.25;5064890;28;20375;-66
2021/04/24 02:13:18;;;;;;;3.00;0.98;;;;;;;1.79;48.23;101355.09;5064429;28;20107;-66
2021/04/24 02:15:44;;;;;;;3.60;0.75;;;;;;;1.77;48.31;101359.31;5064464;28;20075;-67
2021/04/24 02:18:10;;;;;;;0.68;0.60;;;;;;;1.73;48.31;101354.84;5064667;28;20212;-67
2021/04/24 02:20:37;;;;;;;1.98;0.70;;;;;;;1.69;48.19;101358.09;5064449;28;20051;-66
2021/04/24 02:23:07;;;;;;;2.58;1.17;;;;;;;1.70;48.01;101353.03;5064223;28;20039;-67
2021/04/24 02:25:33;;;;;;;1.40;0.77;;;;;;;1.68;47.82;101346.97;5063209;28;20021;-66
2021/04/24 02:27:59;;;;;;;2.72;0.85;;;;;;;1.68;47.29;101346.97;5064286;28;20126;-67
2021/04/24 02:30:25;;;;;;;1.50;0.70;;;;;;;1.73;47.13;101357.41;5064274;28;20032;-67
2021/04/24 02:32:54;;;;;;;0.50;0.50;;;;;;;1.75;47.17;101366.03;5064244;28;20480;-68
2021/04/24 02:35:39;;;;;;;0.75;0.70;;;;;;;1.71;47.19;101366.72;5062821;28;20108;-66
2021/04/24 02:38:04;;;;;;;0.70;0.70;;;;;;;1.65;47.29;101357.06;5063909;28;20256;-69
2021/04/24 02:40:30;;;;;;;0.57;0.50;;;;;;;1.61;47.29;101352.63;5062942;28;20017;-66
2021/04/24 02:42:55;;;;;;;0.90;0.63;;;;;;;1.67;47.11;101360.56;5063779;28;20021;-64
2021/04/24 02:45:21;;;;;;;1.25;0.50;;;;;;;1.69;47.02;101350.41;5064056;28;20021;-63
2021/04/24 02:47:46;;;;;;;1.55;0.70;;;;;;;1.67;46.78;101358.03;5063799;28;20020;-63
2021/04/24 02:50:16;;;;;;;1.05;0.70;;;;;;;1.70;46.58;101375.19;5063594;28;20116;-63
2021/04/24 02:52:41;;;;;;;0.98;0.50;;;;;;;1.59;46.44;101350.00;5063527;28;20021;-63
2021/04/24 02:55:08;;;;;;;1.13;0.60;;;;;;;1.69;46.42;101374.31;5063786;28;20055;-68
2021/04/24 02:57:34;;;;;;;0.65;0.43;;;;;;;1.60;46.41;101363.66;5064162;28;20028;-68
2021/04/24 02:59:59;;;;;;;1.45;0.80;;;;;;;1.64;46.45;101375.81;5063943;28;20545;-68
2021/04/24 03:02:24;;;;;;;0.80;0.52;;;;;;;1.56;46.48;101372.91;5063778;28;20025;-67
2021/04/24 03:04:50;;;;;;;0.95;0.73;;;;;;;1.53;46.50;101371.88;5064013;28;20021;-66
2021/04/24 03:07:15;;;;;;;1.05;0.70;;;;;;;1.46;46.52;101381.84;5063689;28;20071;-66
2021/04/24 03:09:41;;;;;;;0.60;0.60;;;;;;;1.39;46.78;101379.81;5063501;28;20029;-62
2021/04/24 03:12:07;;;;;;;2.10;0.70;;;;;;;1.32;46.82;101370.13;5063376;28;20086;-62
2021/04/24 03:14:33;;;;;;;0.63;0.50;;;;;;;1.30;46.87;101377.72;5063535;28;20052;-66
2021/04/24 03:16:58;;;;;;;0.77;0.60;;;;;;;1.29;46.93;101382.78;5063513;28;20029;-61
2021/04/24 03:19:23;;;;;;;0.80;0.50;;;;;;;1.26;46.87;101386.09;5063379;28;20032;-62
2021/04/24 03:21:49;;;;;;;0.40;0.40;;;;;;;1.23;47.00;101388.50;5063428;28;20027;-62
2021/04/24 03:24:14;;;;;;;1.90;0.60;;;;;;;1.17;47.12;101389.06;5063064;28;20031;-63
2021/04/24 03:26:40;;;;;;;0.60;0.50;;;;;;;1.14;47.07;101390.59;5063580;28;20013;-63
2021/04/24 03:29:05;;;;;;;2.25;0.60;;;;;;;1.13;47.10;101387.19;5063166;28;20021;-64
2021/04/24 03:31:31;;;;;;;0.90;0.60;;;;;;;1.11;47.09;101393.91;5062003;28;20029;-64
2021/04/24 03:33:57;;;;;;;0.85;0.60;;;;;;;1.07;47.09;101392.88;5061973;28;20025;-71
2021/04/24 03:36:22;;;;;;;1.23;0.60;;;;;;;1.01;47.22;101391.75;5063450;28;20021;-71
2021/04/24 03:38:48;;;;;;;1.27;0.70;;;;;;;0.98;47.34;101395.00;5063194;28;20031;-71
2021/04/24 03:41:14;;;;;;;0.57;0.57;;;;;;;0.98;47.25;101398.47;5063448;28;20025;-68
2021/04/24 03:43:39;;;;;;;1.30;0.60;;;;;;;0.91;47.25;101398.09;5066403;28;20040;-69
2021/04/24 03:46:05;;;;;;;0.60;0.40;;;;;;;0.93;47.26;101393.91;5067564;28;20021;-69
2021/04/24 03:48:31;;;;;;;0.45;0.40;;;;;;;0.97;47.39;101400.94;5067525;28;20028;-68
2021/04/24 03:50:56;;;;;;;0.50;0.50;;;;;;;1.04;47.07;101404.66;5067319;28;20049;-69
2021/04/24 03:53:22;;;;;;;0.77;0.50;;;;;;;1.04;46.99;101408.09;5067610;28;20064;-69
2021/04/24 03:55:47;;;;;;;1.30;0.60;;;;;;;1.10;46.88;101399.84;5067632;28;20036;-68
2021/04/24 03:58:13;;;;;;;0.68;0.50;;;;;;;1.18;46.70;101402.75;5065839;28;20017;-67
2021/04/24 04:00:38;;;;;;;1.75;0.50;;;;;;;1.21;46.43;101398.66;5067215;28;20017;-67
2021/04/24 04:03:06;;;;;;;0.47;0.45;;;;;;;1.29;46.06;101403.25;5066867;28;20492;-67
2021/04/24 04:05:37;;;;;;;2.55;0.60;;;;;;;1.29;46.23;101410.91;5065735;28;20021;-67
2021/04/24 04:08:05;;;;;;;0.98;0.80;;;;;;;1.30;46.28;101412.66;5066864;28;20029;-68
2021/04/24 04:10:31;;;;;;;0.88;0.65;;;;;;;1.29;46.21;101414.34;5067229;28;20048;-68
2021/04/24 04:12:57;;;;;;;2.33;0.55;;;;;;;1.30;45.94;101410.09;5066922;28;20088;-67
2021/04/24 04:15:25;;;;;;;1.02;0.70;;;;;;;1.29;46.08;101416.91;5066836;28;20032;-68
2021/04/24 04:18:05;;;;;;;0.80;0.60;;;;;;;1.39;45.91;101420.75;5066800;28;20047;-68
2021/04/24 04:20:31;;;;;;;2.85;0.90;;;;;;;1.53;45.69;101413.72;5067163;28;20025;-69
2021/04/24 04:22:57;;;;;;;1.05;0.65;;;;;;;1.92;45.61;101417.97;5066438;28;20032;-67
2021/04/24 04:25:23;;;;;;;0.77;0.77;;;;;;;2.35;44.56;101410.34;5066885;28;20088;-67
2021/04/24 04:27:48;;;;;;;1.17;0.60;;;;;;;2.81;43.88;101418.19;5066818;28;20349;-64
2021/04/24 04:30:16;;;;;;;2.78;0.60;;;;;;;3.28;43.20;101422.53;5066276;28;20029;-63
2021/04/24 04:32:42;;;;;;;0.73;0.40;;;;;;;3.67;42.12;101418.84;5066280;28;20048;-64
2021/04/24 04:35:09;;;;;;;0.95;0.50;;;;;;;4.09;41.29;101423.75;5066336;28;20154;-64
2021/04/24 04:37:34;;;;;;;0.55;0.40;;;;;;;4.35;39.75;101425.47;5066011;28;20036;-67
2021/04/24 04:40:00;;;;;;;0.55;0.47;;;;;;;4.49;39.56;101428.50;5066194;28;20025;-63
2021/04/24 04:42:26;;;;;;;1.40;0.68;;;;;;;4.80;39.28;101433.78;5066176;28;20021;-63
2021/04/24 04:44:52;;;;;;;0.90;0.60;;;;;;;5.15;38.54;101427.97;5066230;28;20032;-63
2021/04/24 04:47:17;;;;;;;0.40;0.40;;;;;;;5.47;38.43;101412.63;5066003;28;20095;-64
2021/04/24 04:49:43;;;;;;;1.17;0.47;;;;;;;5.66;37.26;101414.03;5065854;28;20068;-64
2021/04/24 04:52:08;;;;;;;0.50;0.40;;;;;;;5.84;37.01;101428.25;5066157;28;20028;-63
2021/04/24 04:54:34;;;;;;;0.50;0.40;;;;;;;5.99;36.61;101420.06;5065598;28;20032;-64
2021/04/24 04:57:00;;;;;;;0.77;0.40;;;;;;;6.14;35.56;101427.38;5064794;28;20032;-64
2021/04/24 04:59:28;;;;;;;1.95;0.80;;;;;;;6.25;35.54;101413.88;5065728;28;20052;-63
2021/04/24 05:01:57;;;;;;;1.65;0.77;;;;;;;6.50;35.28;101432.56;5065702;28;20124;-64
2021/04/24 05:04:22;;;;;;;0.98;0.40;;;;;;;6.85;35.57;101435.16;5065775;28;20094;-65
2021/04/24 05:06:49;;;;;;;0.77;0.50;;;;;;;7.19;34.06;101425.56;5065879;28;20069;-64
2021/04/24 05:09:16;;;;;;;1.70;0.60;;;;;;;7.33;33.77;101419.84;5065472;28;20051;-63
2021/04/24 05:11:42;;;;;;;1.83;0.70;;;;;;;7.48;33.39;101418.41;5065821;28;20060;-64
2021/04/24 05:14:07;;;;;;;0.50;0.50;;;;;;;7.55;32.85;101418.59;5065366;28;20349;-64
2021/04/24 05:16:32;;;;;;;1.33;0.73;;;;;;;7.49;32.26;101412.41;5064228;28;20029;-63
2021/04/24 05:18:58;;;;;;;1.40;0.60;;;;;;;7.37;32.58;101428.50;5065689;28;20035;-64
2021/04/24 05:21:23;;;;;;;0.90;0.70;;;;;;;7.41;32.68;101428.63;5065478;28;20496;-64
2021/04/24 05:23:49;;;;;;;0.90;0.55;;;;;;;7.40;32.63;101424.28;5065084;28;20056;-63
2021/04/24 05:26:14;;;;;;;1.00;0.60;;;;;;;7.60;32.78;101429.03;5065501;28;20051;-63
2021/04/24 05:28:39;;;;;;;1.08;0.70;;;;;;;7.75;31.82;101422.38;5065454;28;20025;-63
2021/04/24 05:31:06;;;;;;;2.58;0.47;;;;;;;7.82;32.44;101429.44;5064072;28;20043;-64
2021/04/24 05:33:32;;;;;;;1.35;0.52;;;;;;;7.88;31.48;101414.03;5065136;28;20025;-64
2021/04/24 05:36:01;;;;;;;9.77;0.90;;;;;;;7.93;31.21;101416.72;5065160;28;20025;-65
2021/04/24 05:38:26;;;;;;;0.75;0.50;;;;;;;7.88;31.39;101416.63;5063603;28;20033;-64
2021/04/24 05:40:52;;;;;;;4.40;0.65;;;;;;;7.78;31.20;101417.31;5065406;28;20067;-63
2021/04/24 05:43:17;;;;;;;1.73;0.57;;;;;;;7.86;30.87;101426.06;5065651;28;20029;-63
2021/04/24 05:45:42;;;;;;;0.70;0.52;;;;;;;7.97;31.34;101415.06;5065355;28;20024;-64
2021/04/24 05:48:08;;;;;;;0.70;0.50;;;;;;;8.12;30.55;101423.09;5065009;28;20507;-63
2021/04/24 05:50:33;;;;;;;0.68;0.60;;;;;;;8.23;31.33;101430.16;5064561;28;20049;-63
2021/04/24 05:52:59;;;;;;;1.17;0.68;;;;;;;8.84;31.11;101429.50;5064780;28;20108;-64
2021/04/24 05:55:24;;;;;;;3.55;0.60;;;;;;;9.11;29.88;101420.38;5064883;28;20065;-66
2021/04/24 05:57:49;;;;;;;1.85;0.68;;;;;;;9.15;28.43;101429.94;5064799;28;20025;-64
2021/04/24 06:00:21;;;;;;;1.15;0.57;;;;;;;8.80;28.89;101418.22;5063453;28;20029;-64
2021/04/24 06:02:47;;;;;;;0.85;0.50;;;;;;;8.65;29.36;101434.38;5064757;28;20454;-64
2021/04/24 06:05:13;;;;;;;2.53;0.50;;;;;;;8.65;29.37;101429.22;5064198;28;20151;-63
2021/04/24 06:07:39;;;;;;;0.45;0.40;;;;;;;8.61;29.24;101442.94;5063193;28;20025;-63
2021/04/24 06:10:08;;;;;;;0.68;0.50;;;;;;;8.84;29.74;101426.03;5064576;28;20090;-63
2021/04/24 06:12:33;;;;;;;1.77;0.50;;;;;;;9.65;29.20;101427.09;5063183;28;20100;-63
2021/04/24 06:14:59;;;;;;;1.52;0.57;;;;;;;10.01;27.57;101427.50;5064502;28;20028;-63
2021/04/24 06:17:25;;;;;;;0.60;0.50;;;;;;;9.73;27.46;101409.91;5064655;28;20081;-63
2021/04/24 06:19:50;;;;;;;0.90;0.50;;;;;;;9.71;27.46;101418.53;5064659;28;20072;-65
2021/04/24 06:22:16;;;;;;;0.70;0.50;;;;;;;9.59;27.31;101425.31;5064482;28;20025;-64
2021/04/24 06:24:41;;;;;;;0.75;0.50;;;;;;;9.26;27.92;101424.03;5064077;28;20028;-64
2021/04/24 06:27:06;;;;;;;1.08;0.52;;;;;;;9.57;27.75;101426.16;5064494;28;20033;-65
2021/04/24 06:29:32;;;;;;;1.20;0.60;;;;;;;9.59;27.33;101420.13;5063987;28;20051;-66
2021/04/24 06:31:58;;;;;;;1.35;0.55;;;;;;;9.50;27.20;101435.56;5064316;28;20040;-65
2021/04/24 06:34:23;;;;;;;1.50;0.65;;;;;;;9.40;27.57;101430.28;5064056;28;20025;-64
2021/04/24 06:36:50;;;;;;;1.02;0.50;;;;;;;9.57;27.27;101437.38;5062491;28;20245;-64
2021/04/24 06:39:15;;;;;;;1.25;0.57;;;;;;;9.66;27.43;101434.91;5063377;28;20085;-67
2021/04/24 06:41:40;;;;;;;0.60;0.40;;;;;;;10.25;27.68;101433.78;5064055;28;20043;-69
2021/04/24 06:44:06;;;;;;;1.00;0.55;;;;;;;10.30;26.14;101450.28;5063937;28;20111;-68
2021/04/24 06:46:31;;;;;;;1.00;0.60;;;;;;;10.26;26.88;101444.19;5063910;28;20055;-67
2021/04/24 06:48:57;;;;;;;2.10;0.77;;;;;;;10.74;27.13;101441.16;5063787;28;20059;-66
2021/04/24 06:51:22;;;;;;;2.28;0.60;;;;;;;11.39;26.29;101437.22;5063628;28;20047;-67
2021/04/24 06:53:48;;;;;;;0.75;0.45;;;;;;;12.00;24.75;101422.69;5063423;28;20465;-67
2021/04/24 06:56:13;;;;;;;2.00;0.47;;;;;;;11.68;24.39;101440.81;5063933;28;20108;-67
2021/04/24 06:58:38;;;;;;;1.17;0.52;;;;;;;11.58;25.37;101435.56;5063730;28;20114;-66
2021/04/24 07:01:04;;;;;;;1.27;0.40;;;;;;;11.84;24.70;101439.13;5063472;28;20025;-67
2021/04/24 07:03:29;;;;;;;0.85;0.60;;;;;;;12.06;24.64;101434.00;5063429;28;20079;-66
2021/04/24 07:05:55;;;;;;;1.65;0.57;;;;;;;12.04;24.38;101441.78;5063601;28;20024;-66
2021/04/24 07:08:20;;;;;;;0.73;0.50;;;;;;;12.34;24.97;101447.94;5063173;28;20037;-67
2021/04/24 07:10:46;;;;;;;2.38;0.57;;;;;;;12.79;23.97;101433.16;5063526;28;20094;-67
2021/04/24 07:13:12;;;;;;;4.90;0.70;;;;;;;12.51;23.29;101445.34;5063240;28;20505;-67
2021/04/24 07:15:37;;;;;;;1.60;0.60;;;;;;;12.32;23.80;101439.25;5063461;28;20059;-66
2021/04/24 07:18:04;;;;;;;0.55;0.40;;;;;;;12.62;23.60;101437.53;5062551;28;20029;-67
2021/04/24 07:20:29;;;;;;;2.33;0.50;;;;;;;12.67;23.53;101434.06;5063423;28;20021;-68
2021/04/24 07:22:55;;;;;;;1.42;0.60;;;;;;;13.20;23.57;101433.94;5063063;28;20028;-67
2021/04/24 07:25:20;;;;;;;1.00;0.50;;;;;;;13.84;23.30;101434.59;5063226;28;20021;-66
2021/04/24 07:27:46;;;;;;;1.58;0.50;;;;;;;14.46;21.11;101435.91;5063321;28;20027;-67
2021/04/24 07:30:12;;;;;;;1.80;0.43;;;;;;;14.24;21.45;101435.22;5063290;28;20029;-67
2021/04/24 07:32:37;;;;;;;2.58;0.80;;;;;;;14.51;21.79;101430.66;5061973;28;20057;-66
2021/04/24 07:35:05;;;;;;;1.35;0.30;;;;;;;14.99;21.39;101430.25;5063353;28;20167;-67
2021/04/24 07:37:30;;;;;;;2.25;0.50;;;;;;;15.35;21.08;101431.59;5063279;28;20105;-65
2021/04/24 07:39:56;;;;;;;2.00;0.43;;;;;;;15.72;19.63;101425.88;5062911;28;20025;-66
2021/04/24 07:42:22;;;;;;;0.93;0.50;;;;;;;15.37;19.15;101416.72;5063101;28;20265;-67
2021/04/24 07:44:47;;;;;;;1.02;0.38;;;;;;;15.36;20.21;101418.50;5061937;28;20092;-71
2021/04/24 07:47:12;;;;;;;0.85;0.50;;;;;;;15.55;18.92;101417.38;5063286;28;20036;-70
2021/04/24 07:49:39;;;;;;;1.27;0.50;;;;;;;15.23;19.44;101399.47;5063107;28;20041;-67
2021/04/24 07:52:06;;;;;;;2.15;0.50;;;;;;;14.94;19.14;101411.13;5063206;28;20029;-66
2021/04/24 07:54:33;;;;;;;1.25;0.45;;;;;;;14.97;19.07;101411.06;5061588;28;20093;-66
2021/04/24 07:56:59;;;;;;;1.77;0.40;;;;;;;14.49;19.02;101428.06;5063235;28;20028;-66
2021/04/24 07:59:25;;;;;;;1.80;0.55;;;;;;;13.74;19.70;101414.63;5063298;28;20049;-68
2021/04/24 08:01:51;;;;;;;1.15;0.50;;;;;;;13.28;20.36;101408.72;5063321;28;20020;-67
2021/04/24 08:04:17;;;;;;;1.10;0.50;;;;;;;13.74;20.94;101417.25;5061708;28;20047;-68
2021/04/24 08:06:42;;;;;;;2.22;0.70;;;;;;;14.70;20.31;101420.03;5063254;28;20017;-68
2021/04/24 08:09:07;;;;;;;0.45;0.40;;;;;;;15.48;19.38;101412.22;5062792;28;20025;-68
2021/04/24 08:11:33;;;;;;;1.17;0.50;;;;;;;16.13;18.73;101408.75;5063239;28;20029;-68
2021/04/24 08:13:59;;;;;;;1.20;0.40;;;;;;;16.68;18.20;101421.81;5062729;28;20365;-67
2021/04/24 08:16:24;;;;;;;0.40;0.30;;;;;;;16.64;16.93;101409.66;5062849;28;20021;-69
2021/04/24 08:18:50;;;;;;;1.42;0.35;;;;;;;15.96;16.75;101415.06;5063022;28;20031;-67
2021/04/24 08:21:15;;;;;;;0.60;0.40;;;;;;;15.26;17.05;101406.41;5063039;28;20032;-68
2021/04/24 08:23:41;;;;;;;0.98;0.43;;;;;;;14.71;17.59;101404.31;5062674;28;20079;-68
2021/04/24 08:26:06;;;;;;;1.27;0.73;;;;;;;14.29;17.93;101403.84;5063029;28;20433;-68
2021/04/24 08:28:32;;;;;;;1.27;0.40;;;;;;;14.15;18.33;101404.81;5062748;28;20021;-67
2021/04/24 08:30:57;;;;;;;1.38;0.60;;;;;;;14.52;18.75;101408.84;5066695;28;20037;-68
2021/04/24 08:33:23;;;;;;;0.75;0.40;;;;;;;15.03;17.51;101394.44;5066353;28;20021;-69
2021/04/24 08:35:48;;;;;;;0.52;0.40;;;;;;;14.86;17.10;101400.75;5066301;28;20025;-67
2021/04/24 08:38:14;;;;;;;2.40;0.60;;;;;;;14.54;17.55;101399.25;5066099;28;20050;-69
2021/04/24 08:40:39;;;;;;;2.22;0.50;;;;;;;14.54;18.16;101401.88;5066719;28;20020;-70
2021/04/24 08:43:04;;;;;;;1.05;0.50;;;;;;;15.15;18.51;101403.91;5066225;28;20032;-67
2021/04/24 08:45:31;;;;;;;0.75;0.50;;;;;;;16.07;18.35;101397.47;5066266;28;20021;-67
2021/04/24 08:47:56;;;;;;;0.88;0.40;;;;;;;16.93;17.35;101396.00;5066145;28;20048;-67
2021/04/24 08:50:25;;;;;;;0.60;0.40;;;;;;;17.64;17.46;101403.34;5066033;28;20045;-66
2021/04/24 08:52:52;;;;;;;2.45;0.50;;;;;;;18.27;16.87;101397.56;5065821;28;20087;-63
2021/04/24 08:55:22;;;;;;;0.82;0.43;;;;;;;18.65;15.39;101388.69;5064416;28;20029;-61
2021/04/24 08:57:48;;;;;;;0.85;0.40;;;;;;;18.51;15.47;101400.44;5065776;28;20505;-64
2021/04/24 09:00:17;;;;;;;3.13;0.50;;;;;;;18.48;15.03;101384.75;5065924;28;20029;-67
2021/04/24 09:02:45;;;;;;;2.83;0.90;;;;;;;18.09;15.58;101391.81;5065704;28;20032;-66
2021/04/24 09:05:14;;;;;;;2.53;0.52;;;;;;;18.39;15.14;101392.84;5065903;28;20051;-64
2021/04/24 09:07:40;;;;;;;0.80;0.40;;;;;;;18.58;16.23;101395.88;5065834;28;20021;-70
2021/04/24 09:10:06;;;;;;;1.30;0.45;;;;;;;19.18;15.04;101382.00;5065599;28;20067;-66
2021/04/24 09:12:35;;;;;;;3.33;0.50;;;;;;;19.71;15.13;101383.06;5065816;28;20080;-64
2021/04/24 09:15:11;;;;;;;1.48;0.40;;;;;;;20.30;14.59;101383.81;5065578;28;20029;-65
2021/04/24 09:18:05;;;;;;;1.85;0.40;;;;;;;20.58;13.24;101378.50;5065647;28;20020;-67
2021/04/24 09:20:32;;;;;;;3.13;0.73;;;;;;;20.49;13.50;101387.59;5065697;28;20025;-67
2021/04/24 09:23:00;;;;;;;1.48;0.40;;;;;;;20.54;13.59;101388.31;5065149;28;20025;-66
2021/04/24 09:25:35;;;;;;;0.93;0.50;;;;;;;20.61;12.95;101376.63;5065069;28;20025;-65
2021/04/24 09:28:01;;;;;;;0.80;0.40;;;;;;;20.61;12.89;101378.38;5065384;28;20021;-60
2021/04/24 09:30:30;;;;;;;1.48;0.50;;;;;;;20.68;12.61;101382.53;5065364;28;20097;-61
2021/04/24 09:33:05;;;;;;;3.40;1.00;;;;;;;20.70;12.77;101378.09;5064925;28;20025;-60
2021/04/24 09:35:54;;;;;;;0.55;0.35;;;;;;;20.83;12.73;101378.47;5065066;28;20040;-61
2021/04/24 09:38:31;;;;;;;1.75;0.60;;;;;;;20.93;12.70;101369.34;5064847;28;20048;-62
2021/04/24 09:41:06;;;;;;;0.55;0.30;;;;;;;21.03;12.53;101369.88;5064527;28;20024;-63
2021/04/24 09:43:53;;;;;;;2.63;0.40;;;;;;;21.04;11.83;101366.31;5065080;28;20021;-61
2021/04/24 09:46:20;;;;;;;0.95;0.40;;;;;;;20.71;11.32;101365.75;5065531;28;20035;-64
2021/04/24 09:48:45;;;;;;;2.00;0.50;;;;;;;20.41;12.04;101375.56;5065086;28;20461;-62
2021/04/24 09:51:19;;;;;;;1.15;0.60;;;;;;;20.12;12.24;101377.41;5065538;28;20060;-69
2021/04/24 09:53:58;;;;;;;2.33;0.40;;;;;;;20.10;12.30;101373.06;5064908;28;20079;-68
2021/04/24 09:56:26;;;;;;;0.85;0.47;;;;;;;20.30;12.29;101375.06;5065053;28;20031;-65
2021/04/24 09:58:52;;;;;;;2.05;0.47;;;;;;;20.18;11.99;101355.22;5064714;28;20055;-63
2021/04/24 10:01:30;;;;;;;1.98;0.50;;;;;;;19.24;12.58;101352.00;5064688;28;20037;-64
2021/04/24 10:03:56;;;;;;;0.93;0.38;;;;;;;18.86;12.33;101365.34;5063094;28;20028;-65
2021/04/24 10:06:27;;;;;;;2.17;0.40;;;;;;;18.28;12.26;101357.22;5065129;28;20016;-64
2021/04/24 10:09:14;;;;;;;1.30;0.65;;;;;;;17.35;13.32;101360.22;5064516;28;20485;-69
2021/04/24 10:11:59;;;;;;;0.70;0.30;;;;;;;17.45;13.24;101369.63;5064446;28;20033;-66
2021/04/24 10:14:48;;;;;;;0.77;0.40;;;;;;;17.36;13.06;101346.22;5064469;28;20500;-66
2021/04/24 10:17:18;;;;;;;3.22;0.57;;;;;;;16.83;14.04;101365.59;5064376;28;20025;-67
2021/04/24 10:19:45;;;;;;;1.35;0.32;;;;;;;17.09;14.39;101353.78;5064561;28;20025;-68
2021/04/24 10:22:13;;;;;;;0.40;0.38;;;;;;;17.65;14.41;101349.06;5064492;28;20024;-67
2021/04/24 10:24:40;;;;;;;3.90;0.65;;;;;;;17.97;13.72;101347.44;5063928;28;20033;-67
2021/04/24 10:27:06;;;;;;;0.75;0.40;;;;;;;18.38;13.65;101352.59;5064487;28;20100;-66
2021/04/24 10:29:32;;;;;;;1.50;0.50;;;;;;;18.52;12.61;101343.44;5064031;28;20059;-67
2021/04/24 10:31:58;;;;;;;1.50;0.38;;;;;;;18.08;13.07;101336.66;5064844;28;20025;-67
2021/04/24 10:34:24;;;;;;;0.80;0.30;;;;;;;18.19;13.12;101331.16;5064604;28;20043;-63
2021/04/24 10:36:50;;;;;;;1.73;0.40;;;;;;;18.26;13.55;101334.50;5064148;28;20032;-67
2021/04/24 10:39:36;;;;;;;1.23;0.40;;;;;;;18.38;12.83;101335.94;5062479;28;20033;-63
2021/04/24 10:42:24;;;;;;;1.70;0.47;;;;;;;18.48;13.13;101329.53;5063932;28;20037;-68
2021/04/24 10:44:56;;;;;;;2.10;0.50;;;;;;;18.87;13.33;101324.97;5064102;28;20075;-67
2021/04/24 10:47:37;;;;;;;0.80;0.50;;;;;;;19.58;12.42;101319.38;5064133;28;20025;-66
2021/04/24 10:50:04;;;;;;;2.33;0.40;;;;;;;19.85;12.56;101324.66;5062501;28;20094;-66
2021/04/24 10:52:30;;;;;;;1.58;0.40;;;;;;;19.70;13.28;101315.47;5063998;28;20028;-66
2021/04/24 10:55:13;;;;;;;1.63;0.60;;;;;;;19.36;13.92;101330.56;5063671;28;20501;-66
2021/04/24 10:57:54;;;;;;;1.10;0.50;;;;;;;19.04;14.56;101325.34;5064011;28;20029;-67
2021/04/24 11:00:29;;;;;;;2.05;0.50;;;;;;;18.97;14.95;101307.16;5064323;28;20079;-66
2021/04/24 11:02:57;;;;;;;4.40;0.60;;;;;;;18.54;15.53;101324.13;5063511;28;20059;-65
2021/04/24 11:05:26;;;;;;;2.35;0.60;;;;;;;18.54;15.58;101326.75;5063867;28;20020;-65
2021/04/24 11:08:22;;;;;;;0.90;0.40;;;;;;;18.52;15.30;101320.66;5063247;28;20048;-64
2021/04/24 11:11:01;;;;;;;1.73;0.40;;;;;;;18.98;15.03;101317.63;5057139;28;20037;-65
2021/04/24 11:13:30;;;;;;;2.22;0.60;;;;;;;18.80;14.92;101329.56;5061851;28;20409;-64
2021/04/24 11:15:57;;;;;;;1.42;0.50;;;;;;;18.16;15.69;101331.25;5062194;28;20387;-63
2021/04/24 11:18:23;;;;;;;3.15;0.50;;;;;;;17.99;16.11;101321.97;5063559;28;20405;-65
2021/04/24 11:20:59;;;;;;;1.50;0.70;;;;;;;18.04;16.15;101335.88;5062526;28;20029;-67
2021/04/24 11:23:30;;;;;;;4.72;0.50;;;;;;;17.82;16.34;101333.78;5063420;28;20079;-66
2021/04/24 11:25:57;;;;;;;1.83;0.50;;;;;;;16.43;17.27;101325.28;5063477;28;20009;-65
2021/04/24 11:28:22;;;;;;;1.60;0.40;;;;;;;14.94;18.63;101323.94;5063387;28;20029;-65
2021/04/24 11:31:05;;;;;;;2.30;0.50;;;;;;;13.79;20.21;101334.56;5063444;28;20025;-66